KSTC/STC METAR and TAF weather

Enter ICAO airport designator
Station Type Date Time Source
KSTC METAR 2021/07/28 18:53 UTC NOAA

KSTC 281853Z 16012KT 10SM CLR 31/19 A2986 RMK AO2 SLP113 T03060194


Station Type Date Time Source
KSTC Decoded METAR 2021/07/28 18:53 UTC NOAA

ST. CLOUD REGIONAL AIRPORT, MN, United States (KSTC) 45-33N 094-03W
Jul 28, 2021 - 02:53 PM EDT / 2021.07.28 1853 UTC
Wind: from the SSE (160 degrees) at 14 MPH (12 KT):0
Visibility: 10 mile(s):0
Sky conditions: clear
Temperature: 87.1 F (30.6 C)
Dew Point: 66.9 F (19.4 C)
Relative Humidity: 51%
Pressure (altimeter): 29.86 in. Hg (1011 hPa)
ob: KSTC 281853Z 16012KT 10SM CLR 31/19 A2986 RMK AO2 SLP113 T03060194
cycle: 19

Station Type Date Time Source
KSTC TAF 2021/07/28 18:54 UTC NOAA

TAF KSTC 281739Z 2818/2918 19012G24KT P6SM SCT250
FM282000 22013G25KT P6SM SCT090 BKN150
FM282200 26012G22KT P6SM VCSH SCT060 BKN120
TEMPO 2823/2903 4SM -SHRA BR BKN050
FM290300 33008KT P6SM SCT250

Example: see airport list